Time;durP1;ratioP1;P1;durP2;ratioP2;P2;SDS_P1;SDS_P2;PMS_P1;PMS_P2;Temp;Humidity;BMP_temperature;BMP_pressure;BME280_temperature;BME280_humidity;BME280_pressure;Samples;Min_cycle;Max_cycle;Signal;HPM_P1;HPM_P2
2022/02/18 00:01:48;;;;;;;4.20;1.30;;;;;;;3.29;76.22;97914.25;430627;1271;142017;-68
2022/02/18 00:11:54;;;;;;;8.00;2.30;;;;;;;3.35;75.26;97924.45;431400;1271;141769;-67
2022/02/18 00:22:00;;;;;;;3.30;1.20;;;;;;;3.36;75.22;97945.00;432581;1271;141370;-69
2022/02/18 00:32:08;;;;;;;2.20;1.60;;;;;;;3.31;75.05;97957.58;432386;1271;142584;-68
2022/02/18 00:42:14;;;;;;;5.00;1.50;;;;;;;3.24;74.95;97976.17;431565;1271;141969;-66
2022/02/18 00:52:20;;;;;;;3.50;1.60;;;;;;;3.22;75.05;97999.41;431508;1271;141154;-68
2022/02/18 01:02:26;;;;;;;3.00;1.10;;;;;;;3.23;74.53;98010.95;435533;1271;142675;-71
2022/02/18 01:12:32;;;;;;;4.30;0.90;;;;;;;3.26;74.26;98026.34;434878;1271;142376;-72
2022/02/18 01:22:37;;;;;;;4.10;1.30;;;;;;;3.27;74.08;98039.94;430368;1271;142758;-65
2022/02/18 01:32:43;;;;;;;2.30;0.90;;;;;;;3.26;73.81;98045.02;430160;1271;141380;-67
2022/02/18 01:42:49;;;;;;;5.80;1.50;;;;;;;3.27;73.42;98058.78;430028;1273;140674;-69
2022/02/18 01:52:56;;;;;;;5.90;1.70;;;;;;;3.30;72.72;98057.91;431094;1271;142477;-68
2022/02/18 02:03:02;;;;;;;;;;;;;;;3.35;71.99;98080.48;431475;1273;144551;-66
2022/02/18 02:13:08;;;;;;;3.50;1.50;;;;;;;3.15;72.93;98115.14;430914;1271;128454;-67
2022/02/18 02:23:14;;;;;;;5.40;1.70;;;;;;;2.69;74.02;98129.10;429663;1271;194385;-67
2022/02/18 02:33:19;;;;;;;3.10;1.30;;;;;;;2.54;74.33;98134.44;432522;1271;191583;-67
2022/02/18 02:43:27;;;;;;;7.40;1.40;;;;;;;2.50;74.58;98143.09;429945;1271;144053;-68
2022/02/18 02:53:33;;;;;;;10.50;2.60;;;;;;;2.47;74.64;98152.10;432092;1272;141938;-69
2022/02/18 03:03:39;;;;;;;4.60;2.10;;;;;;;2.43;74.83;98161.80;432008;1271;142122;-66
2022/02/18 03:13:46;;;;;;;6.60;1.80;;;;;;;2.32;75.27;98173.23;430356;1271;142266;-66
2022/02/18 03:23:51;;;;;;;;;;;;;;;2.32;75.33;98186.02;430649;1273;141951;-67
2022/02/18 03:33:56;;;;;;;5.10;1.40;;;;;;;2.42;74.92;98190.88;429249;1273;128904;-67
2022/02/18 03:44:02;;;;;;;10.60;1.60;;;;;;;2.57;74.43;98214.95;434710;1271;143103;-67
2022/02/18 03:54:09;;;;;;;6.80;1.50;;;;;;;2.72;73.73;98221.26;432338;1273;147497;-67
2022/02/18 04:04:14;;;;;;;7.10;2.30;;;;;;;2.85;73.15;98237.48;433428;1272;141347;-68
2022/02/18 04:14:21;;;;;;;4.90;1.60;;;;;;;2.90;72.90;98254.83;430424;1273;143186;-67
2022/02/18 04:24:26;;;;;;;4.70;1.50;;;;;;;2.95;72.50;98273.44;433158;1271;142066;-67
2022/02/18 04:34:32;;;;;;;5.10;1.20;;;;;;;2.94;72.28;98285.06;430601;1273;142069;-67
2022/02/18 04:44:38;;;;;;;4.60;1.30;;;;;;;2.93;72.10;98296.86;430873;1272;142680;-65
2022/02/18 04:54:44;;;;;;;4.00;1.80;;;;;;;2.87;72.23;98309.84;430353;1271;141879;-68
2022/02/18 05:04:50;;;;;;;5.30;2.00;;;;;;;2.80;72.13;98323.11;430341;1272;142388;-66
2022/02/18 05:14:56;;;;;;;4.30;1.20;;;;;;;2.75;72.27;98326.52;430194;1271;141938;-64
2022/02/18 05:25:02;;;;;;;5.40;1.90;;;;;;;2.67;72.19;98331.59;431564;1271;141111;-67
2022/02/18 05:35:09;;;;;;;5.80;2.10;;;;;;;2.58;72.01;98346.92;430931;1273;141440;-66
2022/02/18 05:45:15;;;;;;;5.70;1.70;;;;;;;2.49;72.05;98355.46;430492;1273;142223;-67
2022/02/18 05:55:21;;;;;;;5.50;1.50;;;;;;;2.41;72.19;98363.48;430201;1273;141073;-68
2022/02/18 06:05:27;;;;;;;3.10;1.50;;;;;;;2.34;72.11;98374.36;431996;1271;141624;-67
2022/02/18 06:15:33;;;;;;;4.20;2.00;;;;;;;2.31;72.28;98397.29;430679;1272;141818;-67
2022/02/18 06:25:38;;;;;;;2.90;1.60;;;;;;;2.32;72.00;98412.60;432267;1272;140464;-67
2022/02/18 06:35:44;;;;;;;11.40;2.40;;;;;;;2.41;71.94;98431.16;431919;1272;142878;-65
2022/02/18 06:45:50;;;;;;;4.80;1.90;;;;;;;2.55;71.85;98436.87;433813;1273;141465;-65
2022/02/18 06:55:56;;;;;;;8.30;3.50;;;;;;;2.64;71.91;98457.00;430796;1272;142108;-65
2022/02/18 07:06:03;;;;;;;4.60;1.90;;;;;;;2.65;72.27;98479.27;433040;1273;142672;-66
2022/02/18 07:16:08;;;;;;;;;;;;;;;2.83;71.93;98491.35;432141;1271;141357;-65
2022/02/18 07:26:14;;;;;;;7.40;1.70;;;;;;;3.31;71.52;98490.13;430038;1273;129623;-65
2022/02/18 07:36:20;;;;;;;9.80;2.00;;;;;;;3.56;71.22;98494.05;430242;1271;141920;-65
2022/02/18 07:46:26;;;;;;;5.20;1.90;;;;;;;3.66;70.16;98493.52;430208;1271;142561;-65
2022/02/18 07:56:32;;;;;;;15.20;3.00;;;;;;;3.75;70.17;98508.82;430616;1271;143107;-64
2022/02/18 08:06:37;;;;;;;4.00;2.30;;;;;;;3.88;69.85;98510.52;430373;1271;141993;-68
2022/02/18 08:16:43;;;;;;;7.10;1.70;;;;;;;4.38;69.20;98530.54;432744;1271;142782;-64
2022/02/18 08:26:51;;;;;;;6.70;2.20;;;;;;;4.42;68.79;98547.30;431004;1271;142626;-67
2022/02/18 08:36:57;;;;;;;5.90;2.10;;;;;;;4.13;67.91;98559.41;430845;1273;147369;-72
2022/02/18 08:47:03;;;;;;;8.00;2.50;;;;;;;3.95;68.34;98570.07;432764;1272;194936;-62
2022/02/18 08:57:10;;;;;;;8.80;2.10;;;;;;;4.10;68.09;98588.52;430720;1271;142810;-70
2022/02/18 09:07:16;;;;;;;5.80;2.30;;;;;;;4.28;68.12;98590.83;431792;1271;141140;-66
2022/02/18 09:17:22;;;;;;;4.50;2.20;;;;;;;6.75;67.24;98592.09;430936;1273;142300;-72
2022/02/18 09:27:28;;;;;;;10.30;2.20;;;;;;;11.71;61.62;98572.48;432557;1271;146984;-69
2022/02/18 09:37:37;;;;;;;9.20;2.20;;;;;;;10.70;57.05;98589.60;433851;1271;146585;-65
2022/02/18 09:47:43;;;;;;;10.20;2.60;;;;;;;7.94;57.30;98602.48;430888;1271;141766;-68
2022/02/18 09:57:52;;;;;;;5.20;1.80;;;;;;;7.14;59.49;98612.89;430399;1271;145662;-62
2022/02/18 10:08:11;;;;;;;6.00;2.50;;;;;;;7.21;59.59;98618.88;433514;1271;139879;-64
2022/02/18 10:18:17;;;;;;;12.70;3.00;;;;;;;7.24;58.70;98616.25;431688;1271;140541;-70
2022/02/18 10:28:25;;;;;;;8.10;2.40;;;;;;;6.72;58.67;98626.70;432598;1271;141038;-68
2022/02/18 10:38:36;;;;;;;5.20;2.10;;;;;;;6.11;58.66;98622.08;431077;1273;141368;-65
2022/02/18 10:48:49;;;;;;;8.80;2.60;;;;;;;5.61;59.22;98623.33;430762;1271;145020;-65
2022/02/18 10:58:55;;;;;;;8.30;2.20;;;;;;;5.27;59.85;98610.14;433555;1271;139863;-77
2022/02/18 11:09:03;;;;;;;8.60;2.60;;;;;;;5.30;60.39;98594.20;432383;1271;141130;-67
2022/02/18 11:19:09;;;;;;;8.20;2.40;;;;;;;5.47;59.99;98579.65;431096;1271;140851;-63
2022/02/18 11:29:36;;;;;;;12.30;3.10;;;;;;;5.44;59.26;98579.67;432376;1271;140089;-64
2022/02/18 11:40:02;;;;;;;7.10;1.80;;;;;;;5.52;59.15;98570.70;430670;1271;140595;-65
2022/02/18 11:50:14;;;;;;;4.30;1.50;;;;;;;5.71;59.15;98558.11;433238;1271;140808;-65
2022/02/18 12:00:20;;;;;;;6.20;2.00;;;;;;;5.92;58.64;98545.90;430372;1271;141095;-63
2022/02/18 12:10:27;;;;;;;8.00;1.70;;;;;;;6.11;58.43;98535.91;431709;1271;183722;-71
2022/02/18 12:20:35;;;;;;;12.00;1.90;;;;;;;6.16;57.64;98527.23;430699;1271;140452;-69
2022/02/18 12:30:45;;;;;;;5.90;1.00;;;;;;;6.21;56.75;98517.42;431169;1271;140652;-64
2022/02/18 12:40:51;;;;;;;4.80;1.60;;;;;;;6.15;55.75;98494.66;431028;1271;140387;-70
2022/02/18 12:51:00;;;;;;;3.70;1.70;;;;;;;6.28;55.06;98484.25;430447;1271;141525;-67
2022/02/18 13:01:14;;;;;;;4.30;1.10;;;;;;;6.39;55.07;98474.02;432135;1271;140529;-69
2022/02/18 13:11:22;;;;;;;4.60;1.20;;;;;;;6.48;54.23;98470.84;430421;1273;140544;-69
2022/02/18 13:21:29;;;;;;;7.30;2.50;;;;;;;6.58;54.58;98464.13;431387;1271;140424;-69
2022/02/18 13:31:41;;;;;;;7.50;1.30;;;;;;;6.66;54.43;98449.70;431735;1271;140852;-68
2022/02/18 13:41:48;;;;;;;6.80;1.70;;;;;;;6.79;54.21;98428.10;432223;1270;140123;-68
2022/02/18 13:51:55;;;;;;;3.10;1.10;;;;;;;6.92;54.58;98400.96;430874;1270;140819;-67
2022/02/18 14:02:05;;;;;;;7.60;1.80;;;;;;;6.98;55.26;98382.15;432294;1271;140653;-70
2022/02/18 14:12:14;;;;;;;5.90;2.30;;;;;;;6.81;55.97;98372.86;433591;1271;140321;-65
2022/02/18 14:22:29;;;;;;;8.40;2.90;;;;;;;6.63;56.72;98337.91;431824;1272;141693;-62
2022/02/18 14:32:38;;;;;;;7.70;3.60;;;;;;;6.58;57.63;98313.48;433086;1271;228465;-60
2022/02/18 14:42:48;;;;;;;8.00;3.10;;;;;;;6.72;57.64;98293.80;431531;1271;145129;-59
2022/02/18 14:52:55;;;;;;;7.30;3.50;;;;;;;6.78;57.71;98284.02;435133;1271;141620;-62
2022/02/18 15:03:03;;;;;;;11.00;4.40;;;;;;;6.75;58.12;98272.41;435493;1270;141370;-61
2022/02/18 15:13:08;;;;;;;7.10;4.90;;;;;;;6.70;58.48;98248.02;443360;1270;143786;-59
2022/02/18 15:23:14;;;;;;;6.40;3.60;;;;;;;6.71;58.51;98213.69;433505;1271;140428;-59
2022/02/18 15:43:44;;;;;;;11.00;4.70;;;;;;;6.50;58.68;98180.22;430667;1270;141152;-59
2022/02/18 15:53:50;;;;;;;10.70;5.60;;;;;;;6.33;58.96;98167.27;430372;1270;141605;-60
2022/02/18 16:03:56;;;;;;;16.50;9.00;;;;;;;6.21;59.27;98141.19;431443;1270;141800;-76
2022/02/18 16:14:01;;;;;;;12.70;6.70;;;;;;;6.17;59.49;98116.80;434132;1271;141824;-67
2022/02/18 16:24:08;;;;;;;14.10;8.50;;;;;;;6.16;59.59;98092.68;431433;1271;140843;-75
2022/02/18 16:34:14;;;;;;;16.40;9.00;;;;;;;6.14;59.74;98075.05;434663;1270;141852;-65
2022/02/18 16:44:20;;;;;;;12.80;7.00;;;;;;;6.15;59.70;98054.88;430203;1270;141135;-62
2022/02/18 16:54:26;;;;;;;14.10;6.30;;;;;;;6.07;59.63;98035.27;433125;1270;146098;-64
2022/02/18 17:04:32;;;;;;;15.90;6.70;;;;;;;5.98;59.67;98008.42;431315;1270;140884;-60
2022/02/18 17:14:38;;;;;;;12.10;5.10;;;;;;;5.98;59.65;97978.90;430257;1273;141084;-60
2022/02/18 17:24:45;;;;;;;11.20;4.70;;;;;;;6.05;59.70;97958.31;432356;1273;142238;-62
2022/02/18 17:34:51;;;;;;;8.60;4.50;;;;;;;6.14;60.15;97941.64;430792;1271;140584;-61
2022/02/18 17:44:57;;;;;;;4.40;3.40;;;;;;;6.12;61.07;97932.42;430237;1273;141410;-67
2022/02/18 17:55:03;;;;;;;7.20;5.30;;;;;;;5.98;62.39;97928.72;433926;1271;141821;-73
2022/02/18 18:05:11;;;;;;;12.00;5.50;;;;;;;5.81;63.82;97896.91;434093;1273;140232;-79
2022/02/18 18:15:17;;;;;;;8.10;3.30;;;;;;;5.59;65.20;97876.08;433334;1272;142221;-70
2022/02/18 18:25:23;;;;;;;11.20;4.60;;;;;;;5.36;66.62;97838.11;430602;1273;141602;-67
2022/02/18 18:35:29;;;;;;;9.10;4.10;;;;;;;5.13;67.82;97789.42;430523;1271;141143;-66
2022/02/18 18:45:35;;;;;;;11.20;5.80;;;;;;;4.93;69.12;97757.13;430102;1272;141633;-68
2022/02/18 18:55:41;;;;;;;8.80;4.50;;;;;;;4.80;70.23;97723.83;430622;1273;142193;-69
2022/02/18 19:05:49;;;;;;;9.40;4.20;;;;;;;4.73;71.10;97699.05;434854;1271;145433;-70
2022/02/18 19:15:55;;;;;;;11.00;4.70;;;;;;;4.73;71.88;97662.80;436216;1271;142431;-67
2022/02/18 19:26:01;;;;;;;9.40;3.50;;;;;;;4.77;72.92;97624.77;437638;1271;142007;-68
2022/02/18 19:36:07;;;;;;;11.60;6.00;;;;;;;4.78;73.50;97592.98;430840;1271;144255;-69
2022/02/18 19:46:13;;;;;;;12.10;5.20;;;;;;;4.76;73.94;97563.77;431931;1271;141622;-70
2022/02/18 19:56:19;;;;;;;11.10;4.70;;;;;;;4.78;74.55;97543.05;432956;1271;142426;-65
2022/02/18 20:06:26;;;;;;;15.50;6.90;;;;;;;4.80;74.75;97516.71;430177;1272;142393;-65
2022/02/18 20:16:33;;;;;;;12.70;5.80;;;;;;;4.86;74.79;97481.42;431930;1271;142014;-72
2022/02/18 20:26:39;;;;;;;24.90;7.60;;;;;;;4.96;75.01;97452.64;434650;1271;141688;-67
2022/02/18 20:36:44;;;;;;;17.30;7.30;;;;;;;5.06;75.24;97425.84;434228;1273;142109;-67
2022/02/18 20:46:51;;;;;;;11.90;5.60;;;;;;;5.22;75.45;97407.81;438499;1271;142256;-68
2022/02/18 20:56:57;;;;;;;16.40;5.80;;;;;;;5.45;75.52;97384.57;434558;1270;142248;-61
2022/02/18 21:07:03;;;;;;;18.10;5.70;;;;;;;5.64;75.26;97364.84;435742;1270;198420;-66
2022/02/18 21:17:09;;;;;;;11.90;5.90;;;;;;;5.83;75.21;97351.51;435404;1270;141398;-66
2022/02/18 21:27:15;;;;;;;10.40;5.20;;;;;;;6.04;75.20;97335.50;431533;1270;141842;-67
2022/02/18 21:37:21;;;;;;;9.30;4.50;;;;;;;6.19;75.29;97302.67;433919;1271;141893;-66
2022/02/18 21:47:27;;;;;;;13.20;5.30;;;;;;;6.33;75.28;97285.86;431074;1270;146789;-67
2022/02/18 21:57:33;;;;;;;10.00;4.80;;;;;;;6.50;75.26;97268.12;430140;1271;141833;-66
2022/02/18 22:07:39;;;;;;;9.20;4.70;;;;;;;6.74;75.10;97252.33;438932;1270;143735;-66
2022/02/18 22:17:44;;;;;;;11.50;4.50;;;;;;;6.85;74.79;97235.77;440615;1271;142766;-67
2022/02/18 22:27:50;;;;;;;10.30;5.30;;;;;;;6.99;74.57;97213.04;434615;1273;142539;-65
2022/02/18 22:37:57;;;;;;;9.30;4.00;;;;;;;7.20;73.99;97208.35;431284;1273;141965;-68
2022/02/18 22:48:03;;;;;;;9.50;3.20;;;;;;;7.41;73.35;97211.08;444710;1273;142908;-65
2022/02/18 22:58:09;;;;;;;7.90;3.30;;;;;;;7.57;73.09;97227.41;431176;1272;142725;-67
2022/02/18 23:08:15;;;;;;;4.70;2.90;;;;;;;7.79;73.00;97238.22;430853;1271;141808;-64
2022/02/18 23:18:21;;;;;;;5.80;3.10;;;;;;;7.98;72.30;97241.20;430058;1271;141568;-67
2022/02/18 23:28:27;;;;;;;3.50;2.70;;;;;;;8.10;71.79;97239.21;431101;1273;140817;-67
2022/02/18 23:38:33;;;;;;;4.70;2.10;;;;;;;8.23;71.39;97227.60;430695;1271;142080;-66
2022/02/18 23:48:39;;;;;;;4.80;2.10;;;;;;;8.40;70.47;97194.98;433138;1273;142796;-66
2022/02/18 23:58:45;;;;;;;3.90;2.10;;;;;;;8.63;69.47;97205.34;437209;1271;141758;-67
